KBLH/BLH METAR and TAF weather

Enter ICAO airport designator
Station Type Date Time Source
KBLH METAR 2018/07/21 10:52 UTC NOAA

KBLH 211052Z AUTO 20007KT 10SM CLR 33/10 A2981 RMK AO2 SLP085 T03280100


Station Type Date Time Source
KBLH Decoded METAR 2018/07/21 10:52 UTC NOAA

BLYTHE AIRPORT, CA, United States (KBLH) 33-37N 114-43W 119M
Jul 21, 2018 - 06:52 AM EDT / 2018.07.21 1052 UTC
Wind: from the SSW (200 degrees) at 8 MPH (7 KT):0
Visibility: 10 mile(s):0
Sky conditions: clear
Temperature: 91.0 F (32.8 C)
Dew Point: 50.0 F (10.0 C)
Relative Humidity: 24%
Pressure (altimeter): 29.81 in. Hg (1009 hPa)
ob: KBLH 211052Z AUTO 20007KT 10SM CLR 33/10 A2981 RMK AO2 SLP085 T03280100
cycle: 11

Station Type Date Time Source
KBLH TAF 2018/07/21 12:22 UTC NOAA

TAF KBLH 211120Z 2112/2212 19007KT P6SM BKN200
FM211600 14010G19KT P6SM VCSH BKN120 OVC150
FM211900 VRB05KT P6SM BKN150 OVC200
FM212300 19007KT P6SM SCT150


Example: see airport list